sensor_id;sensor_type;location;lat;lon;timestamp;pressure;altitude;pressure_sealevel;temperature;humidity
75972;BME280;64651;47.540;19.088;2023-12-29T00:01:23;100836.19;;;22.60;35.86
75972;BME280;64651;47.540;19.088;2023-12-29T00:06:26;100839.81;;;22.61;35.81
75972;BME280;64651;47.540;19.088;2023-12-29T00:11:28;100824.16;;;22.60;35.86
75972;BME280;64651;47.540;19.088;2023-12-29T00:16:31;100836.53;;;22.59;35.88
75972;BME280;64651;47.540;19.088;2023-12-29T00:21:33;100822.50;;;22.59;35.77
75972;BME280;64651;47.540;19.088;2023-12-29T00:26:35;100811.62;;;22.57;35.82
75972;BME280;64651;47.540;19.088;2023-12-29T00:31:37;100801.25;;;22.58;35.68
75972;BME280;64651;47.540;19.088;2023-12-29T00:36:39;100799.59;;;22.57;35.74
75972;BME280;64651;47.540;19.088;2023-12-29T00:41:42;100800.78;;;22.56;35.74
75972;BME280;64651;47.540;19.088;2023-12-29T00:46:45;100814.00;;;22.55;35.72
75972;BME280;64651;47.540;19.088;2023-12-29T00:51:48;100811.53;;;22.54;35.69
75972;BME280;64651;47.540;19.088;2023-12-29T00:56:51;100786.28;;;22.54;35.75
75972;BME280;64651;47.540;19.088;2023-12-29T01:01:53;100801.47;;;22.53;35.71
75972;BME280;64651;47.540;19.088;2023-12-29T01:06:55;100798.19;;;22.51;35.69
75972;BME280;64651;47.540;19.088;2023-12-29T01:11:57;100798.66;;;22.53;35.67
75972;BME280;64651;47.540;19.088;2023-12-29T01:17:00;100811.44;;;22.50;35.70
75972;BME280;64651;47.540;19.088;2023-12-29T01:22:02;100800.56;;;22.49;35.59
75972;BME280;64651;47.540;19.088;2023-12-29T01:27:04;100806.97;;;22.49;35.66
75972;BME280;64651;47.540;19.088;2023-12-29T01:32:07;100804.50;;;22.48;35.65
75972;BME280;64651;47.540;19.088;2023-12-29T01:37:10;100795.63;;;22.46;35.70
75972;BME280;64651;47.540;19.088;2023-12-29T01:42:12;100787.22;;;22.46;35.59
75972;BME280;64651;47.540;19.088;2023-12-29T01:47:15;100791.66;;;22.47;35.64
75972;BME280;64651;47.540;19.088;2023-12-29T01:52:19;100779.19;;;22.44;35.63
75972;BME280;64651;47.540;19.088;2023-12-29T01:57:22;100779.53;;;22.43;35.55
75972;BME280;64651;47.540;19.088;2023-12-29T02:02:24;100775.56;;;22.44;35.56
75972;BME280;64651;47.540;19.088;2023-12-29T02:07:27;100751.81;;;22.41;35.62
75972;BME280;64651;47.540;19.088;2023-12-29T02:12:36;100767.47;;;22.42;35.60
75972;BME280;64651;47.540;19.088;2023-12-29T02:17:47;100762.56;;;22.39;35.59
75972;BME280;64651;47.540;19.088;2023-12-29T02:22:52;100761.72;;;22.39;35.58
75972;BME280;64651;47.540;19.088;2023-12-29T02:27:59;100764.09;;;22.37;35.62
75972;BME280;64651;47.540;19.088;2023-12-29T02:33:08;100763.38;;;22.40;35.56
75972;BME280;64651;47.540;19.088;2023-12-29T02:38:12;100755.34;;;22.38;35.59
75972;BME280;64651;47.540;19.088;2023-12-29T02:43:15;100740.03;;;22.36;35.56
75972;BME280;64651;47.540;19.088;2023-12-29T02:48:17;100745.63;;;22.36;35.48
75972;BME280;64651;47.540;19.088;2023-12-29T02:53:20;100739.53;;;22.34;35.57
75972;BME280;64651;47.540;19.088;2023-12-29T02:58:22;100741.53;;;22.33;35.52
75972;BME280;64651;47.540;19.088;2023-12-29T03:03:24;100750.75;;;22.34;35.59
75972;BME280;64651;47.540;19.088;2023-12-29T03:08:26;100740.69;;;22.33;35.53
75972;BME280;64651;47.540;19.088;2023-12-29T03:13:28;100725.06;;;22.32;35.48
75972;BME280;64651;47.540;19.088;2023-12-29T03:18:31;100730.31;;;22.33;35.46
75972;BME280;64651;47.540;19.088;2023-12-29T03:23:34;100725.91;;;22.32;35.49
75972;BME280;64651;47.540;19.088;2023-12-29T03:28:37;100727.06;;;22.31;35.50
75972;BME280;64651;47.540;19.088;2023-12-29T03:33:39;100719.00;;;22.30;35.48
75972;BME280;64651;47.540;19.088;2023-12-29T03:38:42;100736.28;;;22.32;35.55
75972;BME280;64651;47.540;19.088;2023-12-29T03:43:44;100730.69;;;22.32;35.54
75972;BME280;64651;47.540;19.088;2023-12-29T03:48:47;100716.53;;;22.28;35.55
75972;BME280;64651;47.540;19.088;2023-12-29T03:53:50;100717.81;;;22.31;35.54
75972;BME280;64651;47.540;19.088;2023-12-29T03:58:52;100733.00;;;22.30;35.56
75972;BME280;64651;47.540;19.088;2023-12-29T04:03:54;100740.25;;;22.31;35.52
75972;BME280;64651;47.540;19.088;2023-12-29T04:08:57;100736.62;;;22.30;35.52
75972;BME280;64651;47.540;19.088;2023-12-29T04:13:59;100742.09;;;22.26;35.53
75972;BME280;64651;47.540;19.088;2023-12-29T04:19:01;100742.94;;;22.27;35.48
75972;BME280;64651;47.540;19.088;2023-12-29T04:24:04;100744.91;;;22.26;35.47
75972;BME280;64651;47.540;19.088;2023-12-29T04:29:06;100741.19;;;22.22;35.44
75972;BME280;64651;47.540;19.088;2023-12-29T04:34:08;100744.22;;;22.17;35.32
75972;BME280;64651;47.540;19.088;2023-12-29T04:39:10;100740.69;;;22.20;35.31
75972;BME280;64651;47.540;19.088;2023-12-29T04:44:13;100741.06;;;22.19;35.30
75972;BME280;64651;47.540;19.088;2023-12-29T04:49:15;100737.91;;;22.20;35.24
75972;BME280;64651;47.540;19.088;2023-12-29T04:54:17;100728.69;;;22.20;35.30
75972;BME280;64651;47.540;19.088;2023-12-29T04:59:19;100734.66;;;22.18;35.28
75972;BME280;64651;47.540;19.088;2023-12-29T05:04:22;100736.97;;;22.16;35.34
75972;BME280;64651;47.540;19.088;2023-12-29T05:09:24;100731.38;;;22.16;35.37
75972;BME280;64651;47.540;19.088;2023-12-29T05:14:26;100738.59;;;22.17;35.36
75972;BME280;64651;47.540;19.088;2023-12-29T05:19:28;100745.84;;;22.18;35.37
75972;BME280;64651;47.540;19.088;2023-12-29T05:24:31;100732.53;;;22.15;35.31
75972;BME280;64651;47.540;19.088;2023-12-29T05:29:33;100744.56;;;22.16;35.40
75972;BME280;64651;47.540;19.088;2023-12-29T05:34:35;100745.72;;;22.15;35.39
75972;BME280;64651;47.540;19.088;2023-12-29T05:39:37;100749.34;;;22.15;35.41
75972;BME280;64651;47.540;19.088;2023-12-29T05:44:39;100745.72;;;22.15;35.27
75972;BME280;64651;47.540;19.088;2023-12-29T05:49:42;100767.31;;;22.14;35.31
75972;BME280;64651;47.540;19.088;2023-12-29T05:54:44;100769.34;;;22.14;35.34
75972;BME280;64651;47.540;19.088;2023-12-29T05:59:48;100752.16;;;22.15;35.29
75972;BME280;64651;47.540;19.088;2023-12-29T06:04:50;100766.63;;;22.17;35.24
75972;BME280;64651;47.540;19.088;2023-12-29T06:09:53;100760.09;;;22.13;35.34
75972;BME280;64651;47.540;19.088;2023-12-29T06:14:55;100770.13;;;22.14;35.22
75972;BME280;64651;47.540;19.088;2023-12-29T06:19:57;100777.75;;;22.14;35.25
75972;BME280;64651;47.540;19.088;2023-12-29T06:24:59;100773.75;;;22.15;35.25
75972;BME280;64651;47.540;19.088;2023-12-29T06:30:02;100757.75;;;22.15;35.31
75972;BME280;64651;47.540;19.088;2023-12-29T06:35:04;100754.94;;;22.15;35.27
75972;BME280;64651;47.540;19.088;2023-12-29T06:40:07;100759.28;;;22.13;35.13
75972;BME280;64651;47.540;19.088;2023-12-29T06:45:09;100763.25;;;22.12;35.14
75972;BME280;64651;47.540;19.088;2023-12-29T06:50:11;100768.50;;;22.13;35.17
75972;BME280;64651;47.540;19.088;2023-12-29T06:55:15;100768.16;;;22.15;35.22
75972;BME280;64651;47.540;19.088;2023-12-29T07:00:17;100764.53;;;22.14;35.04
75972;BME280;64651;47.540;19.088;2023-12-29T07:05:20;100757.66;;;22.12;35.14
75972;BME280;64651;47.540;19.088;2023-12-29T07:10:22;100769.34;;;22.14;35.17
75972;BME280;64651;47.540;19.088;2023-12-29T07:15:24;100768.50;;;22.13;35.10
75972;BME280;64651;47.540;19.088;2023-12-29T07:20:26;100768.84;;;22.12;35.16
75972;BME280;64651;47.540;19.088;2023-12-29T07:25:29;100773.75;;;22.15;35.05
75972;BME280;64651;47.540;19.088;2023-12-29T07:30:31;100772.25;;;22.17;35.09
75972;BME280;64651;47.540;19.088;2023-12-29T07:35:33;100774.56;;;22.15;35.08
75972;BME280;64651;47.540;19.088;2023-12-29T07:40:36;100774.56;;;22.15;35.07
75972;BME280;64651;47.540;19.088;2023-12-29T07:45:38;100757.75;;;22.15;35.01
75972;BME280;64651;47.540;19.088;2023-12-29T07:50:40;100756.09;;;22.14;35.00
75972;BME280;64651;47.540;19.088;2023-12-29T08:00:45;100761.03;;;22.17;34.92
75972;BME280;64651;47.540;19.088;2023-12-29T08:05:48;100768.97;;;22.15;34.94
75972;BME280;64651;47.540;19.088;2023-12-29T08:10:50;100774.56;;;22.15;34.93
75972;BME280;64651;47.540;19.088;2023-12-29T08:15:52;100772.13;;;22.14;35.02
75972;BME280;64651;47.540;19.088;2023-12-29T08:20:55;100766.53;;;22.14;34.99
75972;BME280;64651;47.540;19.088;2023-12-29T08:25:57;100787.44;;;22.16;34.90
75972;BME280;64651;47.540;19.088;2023-12-29T08:31:00;100787.75;;;22.15;34.98
75972;BME280;64651;47.540;19.088;2023-12-29T08:36:03;100787.44;;;22.16;35.02
75972;BME280;64651;47.540;19.088;2023-12-29T08:41:06;100788.72;;;22.19;34.99
75972;BME280;64651;47.540;19.088;2023-12-29T08:46:08;100784.28;;;22.18;35.00
75972;BME280;64651;47.540;19.088;2023-12-29T08:56:12;100789.06;;;22.17;35.01
75972;BME280;64651;47.540;19.088;2023-12-29T09:01:15;100782.97;;;22.15;35.09
75972;BME280;64651;47.540;19.088;2023-12-29T09:06:18;100789.53;;;22.19;35.09
75972;BME280;64651;47.540;19.088;2023-12-29T09:11:21;100794.34;;;22.19;35.12
75972;BME280;64651;47.540;19.088;2023-12-29T09:16:23;100797.13;;;22.19;35.20
75972;BME280;64651;47.540;19.088;2023-12-29T09:21:26;100790.56;;;22.15;35.29
75972;BME280;64651;47.540;19.088;2023-12-29T09:26:28;100775.28;;;22.12;35.28
75972;BME280;64651;47.540;19.088;2023-12-29T09:31:30;100784.97;;;22.15;35.30
75972;BME280;64651;47.540;19.088;2023-12-29T09:36:32;100787.75;;;22.15;35.37
75972;BME280;64651;47.540;19.088;2023-12-29T09:41:37;100784.28;;;22.18;35.24
75972;BME280;64651;47.540;19.088;2023-12-29T09:46:44;100785.09;;;22.18;35.30
75972;BME280;64651;47.540;19.088;2023-12-29T09:51:50;100787.56;;;22.20;35.34
75972;BME280;64651;47.540;19.088;2023-12-29T09:56:53;100774.72;;;22.19;35.56
75972;BME280;64651;47.540;19.088;2023-12-29T10:01:56;100778.34;;;22.19;35.53
75972;BME280;64651;47.540;19.088;2023-12-29T10:07:02;100767.22;;;22.23;35.57
75972;BME280;64651;47.540;19.088;2023-12-29T10:12:09;100759.88;;;22.31;35.55
75972;BME280;64651;47.540;19.088;2023-12-29T10:17:31;100745.72;;;22.39;35.42
75972;BME280;64651;47.540;19.088;2023-12-29T10:27:55;100741.50;;;22.57;35.56
75972;BME280;64651;47.540;19.088;2023-12-29T10:32:58;100725.75;;;22.65;35.66
75972;BME280;64651;47.540;19.088;2023-12-29T10:38:13;100723.19;;;22.72;35.80
75972;BME280;64651;47.540;19.088;2023-12-29T10:43:22;100725.41;;;22.79;35.82
75972;BME280;64651;47.540;19.088;2023-12-29T10:48:24;100719.19;;;22.85;35.82
75972;BME280;64651;47.540;19.088;2023-12-29T10:53:26;100711.34;;;22.91;35.85
75972;BME280;64651;47.540;19.088;2023-12-29T10:58:29;100708.19;;;22.92;35.96
75972;BME280;64651;47.540;19.088;2023-12-29T11:03:33;100710.00;;;23.00;35.83
75972;BME280;64651;47.540;19.088;2023-12-29T11:08:35;100704.16;;;23.05;36.08
75972;BME280;64651;47.540;19.088;2023-12-29T11:13:37;100691.75;;;23.06;36.13
75972;BME280;64651;47.540;19.088;2023-12-29T11:18:41;100681.09;;;23.12;36.07
75972;BME280;64651;47.540;19.088;2023-12-29T11:23:45;100671.13;;;23.15;36.17
75972;BME280;64651;47.540;19.088;2023-12-29T11:28:49;100666.91;;;23.21;36.18
75972;BME280;64651;47.540;19.088;2023-12-29T11:34:00;100661.84;;;23.26;36.20
75972;BME280;64651;47.540;19.088;2023-12-29T11:39:33;100652.25;;;23.27;36.22
75972;BME280;64651;47.540;19.088;2023-12-29T11:44:39;100654.31;;;23.30;36.27
75972;BME280;64651;47.540;19.088;2023-12-29T11:50:00;100648.34;;;23.32;36.36
75972;BME280;64651;47.540;19.088;2023-12-29T11:55:09;100637.13;;;23.32;36.42
75972;BME280;64651;47.540;19.088;2023-12-29T12:00:12;100625.88;;;23.32;36.36
75972;BME280;64651;47.540;19.088;2023-12-29T12:05:47;100624.38;;;23.34;36.46
75972;BME280;64651;47.540;19.088;2023-12-29T12:10:50;100615.59;;;23.36;36.43
75972;BME280;64651;47.540;19.088;2023-12-29T12:15:52;100609.97;;;23.36;36.47
75972;BME280;64651;47.540;19.088;2023-12-29T12:20:54;100607.25;;;23.39;36.40
75972;BME280;64651;47.540;19.088;2023-12-29T12:25:57;100610.53;;;23.41;36.45
75972;BME280;64651;47.540;19.088;2023-12-29T12:31:05;100598.91;;;23.43;36.56
75972;BME280;64651;47.540;19.088;2023-12-29T12:36:09;100594.25;;;23.47;36.55
75972;BME280;64651;47.540;19.088;2023-12-29T12:41:11;100590.00;;;23.53;36.58
75972;BME280;64651;47.540;19.088;2023-12-29T12:46:17;100594.44;;;23.54;36.58
75972;BME280;64651;47.540;19.088;2023-12-29T12:51:20;100596.09;;;23.43;36.50
75972;BME280;64651;47.540;19.088;2023-12-29T12:56:23;100589.13;;;23.37;36.50
75972;BME280;64651;47.540;19.088;2023-12-29T13:01:29;100597.81;;;23.32;36.45
75972;BME280;64651;47.540;19.088;2023-12-29T13:06:40;100595.28;;;23.27;36.46
75972;BME280;64651;47.540;19.088;2023-12-29T13:11:44;100584.75;;;23.24;36.29
75972;BME280;64651;47.540;19.088;2023-12-29T13:16:46;100583.50;;;23.21;36.22
75972;BME280;64651;47.540;19.088;2023-12-29T13:21:50;100583.38;;;23.18;36.15
75972;BME280;64651;47.540;19.088;2023-12-29T13:27:02;100576.59;;;23.19;36.34
75972;BME280;64651;47.540;19.088;2023-12-29T13:32:10;100577.75;;;23.18;36.30
75972;BME280;64651;47.540;19.088;2023-12-29T13:42:46;100592.25;;;23.20;36.35
75972;BME280;64651;47.540;19.088;2023-12-29T13:47:49;100580.22;;;23.19;36.43
75972;BME280;64651;47.540;19.088;2023-12-29T13:52:52;100567.47;;;23.22;36.28
75972;BME280;64651;47.540;19.088;2023-12-29T13:57:54;100563.03;;;23.21;36.30
75972;BME280;64651;47.540;19.088;2023-12-29T14:02:58;100571.91;;;23.23;36.29
75972;BME280;64651;47.540;19.088;2023-12-29T14:08:08;100562.66;;;23.22;36.25
75972;BME280;64651;47.540;19.088;2023-12-29T14:13:15;100571.91;;;23.23;36.23
75972;BME280;64651;47.540;19.088;2023-12-29T14:23:23;100592.72;;;23.22;35.87
75972;BME280;64651;47.540;19.088;2023-12-29T14:28:25;100578.22;;;23.20;35.88
75972;BME280;64651;47.540;19.088;2023-12-29T14:33:27;100559.75;;;23.19;35.98
75972;BME280;64651;47.540;19.088;2023-12-29T14:38:30;100576.97;;;23.17;36.03
75972;BME280;64651;47.540;19.088;2023-12-29T14:43:32;100588.56;;;23.16;36.18
75972;BME280;64651;47.540;19.088;2023-12-29T14:48:34;100602.25;;;23.17;36.33
75972;BME280;64651;47.540;19.088;2023-12-29T14:53:37;100604.31;;;23.20;36.40
75972;BME280;64651;47.540;19.088;2023-12-29T14:58:40;100604.41;;;23.24;36.41
75972;BME280;64651;47.540;19.088;2023-12-29T15:03:42;100605.59;;;23.23;36.34
75972;BME280;64651;47.540;19.088;2023-12-29T15:08:44;100608.41;;;23.23;36.27
75972;BME280;64651;47.540;19.088;2023-12-29T15:13:47;100624.06;;;23.24;36.14
75972;BME280;64651;47.540;19.088;2023-12-29T15:18:49;100623.25;;;23.23;36.12
75972;BME280;64651;47.540;19.088;2023-12-29T15:23:51;100628.06;;;23.23;36.07
75972;BME280;64651;47.540;19.088;2023-12-29T15:28:53;100632.03;;;23.22;35.96
75972;BME280;64651;47.540;19.088;2023-12-29T15:33:57;100633.22;;;23.21;35.90
75972;BME280;64651;47.540;19.088;2023-12-29T15:38:59;100618.69;;;23.19;35.91
75972;BME280;64651;47.540;19.088;2023-12-29T15:44:01;100631.09;;;23.18;35.86
75972;BME280;64651;47.540;19.088;2023-12-29T15:49:05;100650.31;;;23.16;35.85
75972;BME280;64651;47.540;19.088;2023-12-29T15:54:09;100638.16;;;23.12;35.86
75972;BME280;64651;47.540;19.088;2023-12-29T15:59:11;100651.03;;;23.13;35.83
75972;BME280;64651;47.540;19.088;2023-12-29T16:04:13;100651.84;;;23.13;35.77
75972;BME280;64651;47.540;19.088;2023-12-29T16:09:16;100642.16;;;23.11;35.77
75972;BME280;64651;47.540;19.088;2023-12-29T16:14:18;100643.31;;;23.10;35.79
75972;BME280;64651;47.540;19.088;2023-12-29T16:19:20;100632.09;;;23.10;35.70
75972;BME280;64651;47.540;19.088;2023-12-29T16:24:23;100628.47;;;23.09;35.69
75972;BME280;64651;47.540;19.088;2023-12-29T16:29:25;100636.91;;;23.09;35.65
75972;BME280;64651;47.540;19.088;2023-12-29T16:34:27;100650.13;;;23.09;35.77
75972;BME280;64651;47.540;19.088;2023-12-29T16:39:29;100628.81;;;23.08;35.62
75972;BME280;64651;47.540;19.088;2023-12-29T16:44:32;100615.12;;;23.06;35.68
75972;BME280;64651;47.540;19.088;2023-12-29T16:49:34;100626.38;;;23.06;35.63
75972;BME280;64651;47.540;19.088;2023-12-29T16:54:36;100629.19;;;23.06;35.63
75972;BME280;64651;47.540;19.088;2023-12-29T16:59:38;100615.88;;;23.03;35.60
75972;BME280;64651;47.540;19.088;2023-12-29T17:04:40;100605.91;;;23.05;35.58
75972;BME280;64651;47.540;19.088;2023-12-29T17:09:44;100602.66;;;23.03;35.57
75972;BME280;64651;47.540;19.088;2023-12-29T17:14:46;100603.09;;;23.05;35.53
75972;BME280;64651;47.540;19.088;2023-12-29T17:19:48;100596.69;;;23.05;35.59
75972;BME280;64651;47.540;19.088;2023-12-29T17:24:50;100595.88;;;23.04;35.46
75972;BME280;64651;47.540;19.088;2023-12-29T17:29:53;100603.09;;;23.05;35.49
75972;BME280;64651;47.540;19.088;2023-12-29T17:34:55;100597.84;;;23.04;35.46
75972;BME280;64651;47.540;19.088;2023-12-29T17:40:00;100587.44;;;23.04;35.47
75972;BME280;64651;47.540;19.088;2023-12-29T17:45:03;100595.88;;;23.04;35.47
75972;BME280;64651;47.540;19.088;2023-12-29T17:50:08;100605.47;;;23.03;35.46
75972;BME280;64651;47.540;19.088;2023-12-29T17:55:12;100607.44;;;23.03;35.46
75972;BME280;64651;47.540;19.088;2023-12-29T18:00:15;100598.22;;;23.02;35.41
75972;BME280;64651;47.540;19.088;2023-12-29T18:05:17;100594.59;;;23.02;35.40
75972;BME280;64651;47.540;19.088;2023-12-29T18:10:20;100591.78;;;23.02;35.34
75972;BME280;64651;47.540;19.088;2023-12-29T18:15:22;100589.78;;;23.02;35.30
75972;BME280;64651;47.540;19.088;2023-12-29T18:20:24;100597.03;;;23.03;35.27
75972;BME280;64651;47.540;19.088;2023-12-29T18:25:26;100598.22;;;23.02;35.24
75972;BME280;64651;47.540;19.088;2023-12-29T18:30:30;100606.16;;;23.00;35.26
75972;BME280;64651;47.540;19.088;2023-12-29T18:35:32;100607.81;;;23.01;35.26
75972;BME280;64651;47.540;19.088;2023-12-29T18:40:34;100605.34;;;23.00;35.20
75972;BME280;64651;47.540;19.088;2023-12-29T18:45:37;100606.97;;;23.01;35.13
75972;BME280;64651;47.540;19.088;2023-12-29T18:50:39;100603.34;;;23.00;35.20
75972;BME280;64651;47.540;19.088;2023-12-29T18:55:41;100603.34;;;23.00;35.19
75972;BME280;64651;47.540;19.088;2023-12-29T19:00:47;100596.09;;;22.99;35.19
75972;BME280;64651;47.540;19.088;2023-12-29T19:05:51;100600.13;;;22.98;35.19
75972;BME280;64651;47.540;19.088;2023-12-29T19:10:54;100599.28;;;22.98;35.17
75972;BME280;64651;47.540;19.088;2023-12-29T19:15:56;100595.66;;;22.97;35.13
75972;BME280;64651;47.540;19.088;2023-12-29T19:21:02;100594.03;;;22.96;35.09
75972;BME280;64651;47.540;19.088;2023-12-29T19:26:05;100592.03;;;22.97;35.12
75972;BME280;64651;47.540;19.088;2023-12-29T19:31:08;100584.78;;;22.96;35.09
75972;BME280;64651;47.540;19.088;2023-12-29T19:36:14;100567.97;;;22.96;35.04
75972;BME280;64651;47.540;19.088;2023-12-29T19:41:19;100579.19;;;22.96;35.01
75972;BME280;64651;47.540;19.088;2023-12-29T19:46:23;100568.31;;;22.94;35.02
75972;BME280;64651;47.540;19.088;2023-12-29T19:51:26;100568.69;;;22.93;35.08
75972;BME280;64651;47.540;19.088;2023-12-29T19:56:29;100583.06;;;22.91;35.01
75972;BME280;64651;47.540;19.088;2023-12-29T20:01:31;100571.84;;;22.91;34.93
75972;BME280;64651;47.540;19.088;2023-12-29T20:06:45;100579.78;;;22.89;35.00
75972;BME280;64651;47.540;19.088;2023-12-29T20:11:48;100575.00;;;22.90;34.95
75972;BME280;64651;47.540;19.088;2023-12-29T20:16:51;100562.97;;;22.89;34.97
75972;BME280;64651;47.540;19.088;2023-12-29T20:21:54;100573.72;;;22.87;34.98
75972;BME280;64651;47.540;19.088;2023-12-29T20:26:56;100571.72;;;22.88;35.01
75972;BME280;64651;47.540;19.088;2023-12-29T20:31:58;100568.09;;;22.87;34.94
75972;BME280;64651;47.540;19.088;2023-12-29T20:37:00;100568.47;;;22.86;34.91
75972;BME280;64651;47.540;19.088;2023-12-29T20:42:03;100561.59;;;22.83;35.00
75972;BME280;64651;47.540;19.088;2023-12-29T20:47:05;100563.56;;;22.83;34.94
75972;BME280;64651;47.540;19.088;2023-12-29T20:52:08;100555.50;;;22.81;34.94
75972;BME280;64651;47.540;19.088;2023-12-29T20:57:10;100557.88;;;22.79;34.87
75972;BME280;64651;47.540;19.088;2023-12-29T21:02:13;100560.69;;;22.79;34.95
75972;BME280;64651;47.540;19.088;2023-12-29T21:07:15;100559.50;;;22.80;34.91
75972;BME280;64651;47.540;19.088;2023-12-29T21:12:17;100550.16;;;22.76;34.86
75972;BME280;64651;47.540;19.088;2023-12-29T21:17:20;100550.62;;;22.78;34.93
75972;BME280;64651;47.540;19.088;2023-12-29T21:22:22;100551.31;;;22.75;34.89
75972;BME280;64651;47.540;19.088;2023-12-29T21:27:24;100552.53;;;22.74;34.95
75972;BME280;64651;47.540;19.088;2023-12-29T21:32:28;100564.56;;;22.75;34.95
75972;BME280;64651;47.540;19.088;2023-12-29T21:37:31;100564.56;;;22.75;34.89
75972;BME280;64651;47.540;19.088;2023-12-29T21:42:34;100558.50;;;22.73;34.88
75972;BME280;64651;47.540;19.088;2023-12-29T21:47:40;100555.69;;;22.73;34.88
75972;BME280;64651;47.540;19.088;2023-12-29T21:52:46;100557.66;;;22.72;34.80
75972;BME280;64651;47.540;19.088;2023-12-29T21:57:49;100556.00;;;22.71;34.69
75972;BME280;64651;47.540;19.088;2023-12-29T22:02:51;100545.59;;;22.72;34.68
75972;BME280;64651;47.540;19.088;2023-12-29T22:07:53;100547.94;;;22.70;34.63
75972;BME280;64651;47.540;19.088;2023-12-29T22:12:56;100551.94;;;22.69;34.70
75972;BME280;64651;47.540;19.088;2023-12-29T22:17:58;100544.69;;;22.67;34.65
75972;BME280;64651;47.540;19.088;2023-12-29T22:23:01;100549.47;;;22.67;34.65
75972;BME280;64651;47.540;19.088;2023-12-29T22:28:04;100537.09;;;22.68;34.64
75972;BME280;64651;47.540;19.088;2023-12-29T22:33:08;100531.84;;;22.66;34.61
75972;BME280;64651;47.540;19.088;2023-12-29T22:38:10;100527.38;;;22.65;34.62
75972;BME280;64651;47.540;19.088;2023-12-29T22:43:13;100524.59;;;22.65;34.55
75972;BME280;64651;47.540;19.088;2023-12-29T22:48:16;100527.75;;;22.64;34.60
75972;BME280;64651;47.540;19.088;2023-12-29T22:53:18;100511.28;;;22.62;34.57
75972;BME280;64651;47.540;19.088;2023-12-29T22:58:21;100531.72;;;22.63;34.62
75972;BME280;64651;47.540;19.088;2023-12-29T23:03:24;100530.53;;;22.64;34.55
75972;BME280;64651;47.540;19.088;2023-12-29T23:08:26;100524.94;;;22.64;34.56
75972;BME280;64651;47.540;19.088;2023-12-29T23:13:28;100525.31;;;22.62;34.56
75972;BME280;64651;47.540;19.088;2023-12-29T23:18:31;100506.03;;;22.61;34.46
75972;BME280;64651;47.540;19.088;2023-12-29T23:23:33;100503.22;;;22.61;34.46
75972;BME280;64651;47.540;19.088;2023-12-29T23:28:35;100500.41;;;22.61;34.40
75972;BME280;64651;47.540;19.088;2023-12-29T23:33:38;100494.34;;;22.59;34.40
75972;BME280;64651;47.540;19.088;2023-12-29T23:38:40;100499.97;;;22.59;34.39
75972;BME280;64651;47.540;19.088;2023-12-29T23:43:42;100501.50;;;22.56;34.39
75972;BME280;64651;47.540;19.088;2023-12-29T23:48:50;100503.94;;;22.58;34.39
75972;BME280;64651;47.540;19.088;2023-12-29T23:53:52;100487.84;;;22.55;34.35
75972;BME280;64651;47.540;19.088;2023-12-29T23:58:54;100502.66;;;22.55;34.27
